createdAt,value
2018-09-01T00:01:15.928Z,23.60
2018-09-01T00:03:45.399Z,24.33
2018-09-01T00:06:15.496Z,24.97
2018-09-01T00:08:45.185Z,24.80
2018-09-01T00:11:14.504Z,24.93
2018-09-01T00:13:44.241Z,23.83
2018-09-01T00:16:15.171Z,24.80
2018-09-01T00:18:46.089Z,25.80
2018-09-01T00:21:15.849Z,25.40
2018-09-01T00:23:46.470Z,24.33
2018-09-01T00:26:17.145Z,23.33
2018-09-01T00:28:47.271Z,24.87
2018-09-01T00:31:16.731Z,25.40
2018-09-01T00:33:46.924Z,23.73
2018-09-01T00:36:17.049Z,23.63
2018-09-01T00:38:52.250Z,21.57
2018-09-01T00:41:21.807Z,23.80
2018-09-01T00:43:51.652Z,22.20
2018-09-01T00:46:21.844Z,22.80
2018-09-01T00:48:51.702Z,23.53
2018-09-01T00:51:22.254Z,23.77
2018-09-01T00:53:52.634Z,23.93
2018-09-01T00:56:22.610Z,23.17
2018-09-01T00:58:54.797Z,24.73
2018-09-01T01:01:25.212Z,24.23
2018-09-01T01:03:55.068Z,22.37
2018-09-01T01:06:25.138Z,22.93
2018-09-01T01:09:01.173Z,21.57
2018-09-01T01:11:31.149Z,24.97
2018-09-01T01:14:01.019Z,25.37
2018-09-01T01:16:39.411Z,25.60
2018-09-01T01:22:25.550Z,25.00
2018-09-01T01:24:56.464Z,25.10
2018-09-01T01:27:29.081Z,24.53
2018-09-01T01:29:59.986Z,24.33
2018-09-01T01:32:31.730Z,23.97
2018-09-01T01:35:05.264Z,23.17
2018-09-01T01:37:36.284Z,24.37
2018-09-01T01:40:06.805Z,23.80
2018-09-01T01:42:36.944Z,23.40
2018-09-01T01:45:06.747Z,24.17
2018-09-01T01:47:42.088Z,24.83
2018-09-01T01:50:12.411Z,25.33
2018-09-01T01:52:42.121Z,25.83
2018-09-01T01:55:11.944Z,24.97
2018-09-01T01:57:48.306Z,25.27
2018-09-01T02:00:18.731Z,25.20
2018-09-01T02:02:49.390Z,25.33
2018-09-01T02:05:22.082Z,25.93
2018-09-01T02:07:52.100Z,24.43
2018-09-01T02:10:22.374Z,25.13
2018-09-01T02:12:52.481Z,24.97
2018-09-01T02:15:31.843Z,24.20
2018-09-01T02:18:01.626Z,25.30
2018-09-01T02:20:31.421Z,24.90
2018-09-01T02:23:01.506Z,24.40
2018-09-01T02:25:31.446Z,23.17
2018-09-01T02:28:01.220Z,25.63
2018-09-01T02:30:31.297Z,25.13
2018-09-01T02:33:01.260Z,26.13
2018-09-01T02:38:09.568Z,24.00
2018-09-01T02:40:40.995Z,25.53
2018-09-01T02:43:13.183Z,25.73
2018-09-01T02:45:44.330Z,24.30
2018-09-01T02:48:16.928Z,25.07
2018-09-01T02:50:48.592Z,25.67
2018-09-01T02:53:21.424Z,25.33
2018-09-01T02:55:53.091Z,25.57
2018-09-01T02:58:24.421Z,25.77
2018-09-01T03:01:00.596Z,25.80
2018-09-01T03:03:30.182Z,25.80
2018-09-01T03:06:01.628Z,27.57
2018-09-01T03:08:31.372Z,25.40
2018-09-01T03:11:01.207Z,25.07
2018-09-01T03:13:31.149Z,26.47
2018-09-01T03:16:00.962Z,24.80
2018-09-01T03:18:30.691Z,25.80
2018-09-01T03:21:01.374Z,25.40
2018-09-01T03:23:31.523Z,24.67
2018-09-01T03:26:01.415Z,24.33
2018-09-01T03:28:31.325Z,23.83
2018-09-01T03:31:00.999Z,24.40
2018-09-01T03:33:31.672Z,22.93
2018-09-01T03:36:02.202Z,24.60
2018-09-01T03:38:31.797Z,25.17
2018-09-01T03:41:01.816Z,26.00
2018-09-01T03:43:31.388Z,23.57
2018-09-01T03:46:00.922Z,26.30
2018-09-01T03:48:30.525Z,23.93
2018-09-01T03:51:00.544Z,26.07
2018-09-01T03:53:30.500Z,24.43
2018-09-01T03:56:00.742Z,25.17
2018-09-01T03:58:30.618Z,24.07
2018-09-01T04:01:02.541Z,23.23
2018-09-01T04:03:32.829Z,23.07
2018-09-01T04:06:02.772Z,22.80
2018-09-01T04:08:32.609Z,21.67
2018-09-01T04:11:04.872Z,23.93
2018-09-01T04:13:35.201Z,23.07
2018-09-01T04:16:04.960Z,23.93
2018-09-01T04:18:35.847Z,23.80
2018-09-01T04:21:06.227Z,24.37
2018-09-01T04:23:36.226Z,23.77
2018-09-01T04:26:04.684Z,23.70
2018-09-01T04:28:33.461Z,24.07
2018-09-01T04:31:02.153Z,24.07
2018-09-01T04:33:33.067Z,24.93
2018-09-01T04:36:01.540Z,24.73
2018-09-01T04:38:29.969Z,23.67
2018-09-01T04:40:59.892Z,24.23
2018-09-01T04:43:28.446Z,22.23
2018-09-01T04:45:56.907Z,21.53
2018-09-01T04:48:25.359Z,20.80
2018-09-01T04:50:53.756Z,19.73
2018-09-01T04:53:22.173Z,20.53
2018-09-01T04:55:51.271Z,19.57
2018-09-01T04:58:19.805Z,17.73
2018-09-01T05:00:48.331Z,17.70
2018-09-01T05:03:16.941Z,16.33
2018-09-01T05:05:46.224Z,15.00
2018-09-01T05:08:16.575Z,15.63
2018-09-01T05:11:05.583Z,17.80
2018-09-01T05:13:34.065Z,16.27
2018-09-01T05:19:21.873Z,16.20
2018-09-01T05:21:54.973Z,16.03
2018-09-01T05:24:30.916Z,14.10
2018-09-01T05:27:01.283Z,15.07
2018-09-01T05:29:32.546Z,14.43
2018-09-01T05:32:03.206Z,13.63
2018-09-01T05:34:35.031Z,13.70
2018-09-01T05:37:06.393Z,13.23
2018-09-01T05:39:37.764Z,15.10
2018-09-01T05:42:07.521Z,14.50
2018-09-01T05:44:40.084Z,13.57
2018-09-01T05:47:14.302Z,13.83
2018-09-01T05:49:44.842Z,14.97
2018-09-01T05:52:15.675Z,17.77
2018-09-01T05:54:46.096Z,17.50
2018-09-01T05:57:16.173Z,16.13
2018-09-01T05:59:46.896Z,15.53
2018-09-01T06:02:16.706Z,16.13
2018-09-01T06:04:46.739Z,16.93
2018-09-01T06:07:18.954Z,16.27
2018-09-01T06:09:48.984Z,18.30
2018-09-01T06:12:19.385Z,18.80
2018-09-01T06:14:51.418Z,19.37
2018-09-01T06:17:22.825Z,20.07
2018-09-01T06:19:53.672Z,18.87
2018-09-01T06:22:24.117Z,17.87
2018-09-01T06:24:54.579Z,18.57
2018-09-01T06:27:30.073Z,22.87
2018-09-01T06:30:00.580Z,23.87
2018-09-01T06:32:31.294Z,20.03
2018-09-01T06:35:01.965Z,20.43
2018-09-01T06:37:33.571Z,18.57
2018-09-01T06:40:04.288Z,20.20
2018-09-01T06:42:34.757Z,20.80
2018-09-01T06:45:05.026Z,17.87
2018-09-01T06:47:34.985Z,18.20
2018-09-01T06:50:06.447Z,18.23
2018-09-01T06:52:36.873Z,17.97
2018-09-01T06:55:07.551Z,17.53
2018-09-01T06:57:42.930Z,18.53
2018-09-01T07:00:24.408Z,17.33
2018-09-01T07:02:56.453Z,18.07
2018-09-01T07:05:27.202Z,17.20
2018-09-01T07:08:02.237Z,17.70
2018-09-01T07:10:36.212Z,17.27
2018-09-01T07:13:06.661Z,17.80
2018-09-01T07:15:36.874Z,18.93
2018-09-01T07:18:06.967Z,18.83
2018-09-01T07:20:36.342Z,17.60
2018-09-01T07:23:06.444Z,19.63
2018-09-01T07:25:36.265Z,18.73
2018-09-01T07:28:07.661Z,18.93
2018-09-01T07:30:38.971Z,18.07
2018-09-01T07:33:09.176Z,19.17
2018-09-01T07:35:44.231Z,19.73
2018-09-01T07:38:13.589Z,20.00
2018-09-01T07:40:43.999Z,20.37
2018-09-01T07:43:13.952Z,20.13
2018-09-01T07:45:43.875Z,21.43
2018-09-01T07:48:13.616Z,20.33
2018-09-01T07:50:43.394Z,20.80
2018-09-01T07:53:13.303Z,22.00
2018-09-01T07:55:43.241Z,17.82
2018-09-01T07:58:13.040Z,19.25
2018-09-01T08:00:42.740Z,20.60
2018-09-01T08:03:12.343Z,20.27
2018-09-01T08:05:42.144Z,18.55
2018-09-01T08:08:12.115Z,19.60
2018-09-01T08:10:42.500Z,19.70
2018-09-01T08:13:12.932Z,19.52
2018-09-01T08:15:43.354Z,19.27
2018-09-01T08:18:13.204Z,21.93
2018-09-01T08:20:42.336Z,21.00
2018-09-01T08:23:11.934Z,21.37
2018-09-01T08:25:41.813Z,18.65
2018-09-01T08:28:11.857Z,18.80
2018-09-01T08:30:41.134Z,17.42
2018-09-01T08:33:11.425Z,17.83
2018-09-01T08:35:40.661Z,19.90
2018-09-01T08:38:09.972Z,19.97
2018-09-01T08:40:38.941Z,18.48
2018-09-01T08:43:08.854Z,17.85
2018-09-01T08:45:37.933Z,17.02
2018-09-01T08:48:07.942Z,17.42
2018-09-01T08:50:37.458Z,17.87
2018-09-01T08:53:06.714Z,16.90
2018-09-01T08:55:37.867Z,17.92
2018-09-01T08:58:07.433Z,17.50
2018-09-01T09:00:36.797Z,14.70
2018-09-01T09:03:06.210Z,15.60
2018-09-01T09:05:36.159Z,15.63
2018-09-01T09:08:05.304Z,17.07
2018-09-01T09:10:35.288Z,17.50
2018-09-01T09:13:04.212Z,15.20
2018-09-01T09:15:33.653Z,15.47
2018-09-01T09:18:02.404Z,17.85
2018-09-01T09:20:31.853Z,15.98
2018-09-01T09:23:03.018Z,15.70
2018-09-01T09:25:32.441Z,15.40
2018-09-01T09:28:01.936Z,15.58
2018-09-01T09:30:31.470Z,14.87
2018-09-01T09:33:00.248Z,14.47
2018-09-01T09:35:35.658Z,15.85
2018-09-01T09:38:05.325Z,16.07
2018-09-01T09:40:34.557Z,15.23
2018-09-01T09:43:04.449Z,15.03
2018-09-01T09:45:34.145Z,15.10
2018-09-01T09:48:02.822Z,15.67
2018-09-01T09:50:32.058Z,16.07
2018-09-01T09:53:00.916Z,16.40
2018-09-01T09:55:30.325Z,16.63
2018-09-01T09:57:59.580Z,16.40
2018-09-01T10:00:35.193Z,16.10
2018-09-01T10:03:04.430Z,16.77
2018-09-01T10:05:33.758Z,16.67
2018-09-01T10:08:03.480Z,14.43
2018-09-01T10:10:33.640Z,15.27
2018-09-01T10:13:02.418Z,14.90
2018-09-01T10:15:32.474Z,15.40
2018-09-01T10:18:02.142Z,15.20
2018-09-01T10:20:32.444Z,15.47
2018-09-01T10:23:02.143Z,15.10
2018-09-01T10:25:32.044Z,15.37
2018-09-01T10:28:01.876Z,16.37
2018-09-01T10:30:31.296Z,14.20
2018-09-01T10:33:01.445Z,14.93
2018-09-01T10:35:37.308Z,16.10
2018-09-01T10:38:06.191Z,16.67
2018-09-01T10:40:41.977Z,15.37
2018-09-01T10:43:11.859Z,16.30
2018-09-01T10:45:42.194Z,15.90
2018-09-01T10:48:23.484Z,16.90
2018-09-01T10:50:53.663Z,16.67
2018-09-01T10:53:24.315Z,15.00
2018-09-01T10:55:54.757Z,16.67
2018-09-01T10:58:26.405Z,10.23
2018-09-01T11:01:03.119Z,16.03
2018-09-01T11:03:32.778Z,16.13
2018-09-01T11:06:06.046Z,10.78
2018-09-01T11:08:36.188Z,15.47
2018-09-01T11:11:10.478Z,15.33
2018-09-01T11:13:40.522Z,10.18
2018-09-01T11:16:11.516Z,13.38
2018-09-01T11:18:41.547Z,10.90
2018-09-01T11:21:11.441Z,15.30
2018-09-01T11:23:42.201Z,13.60
2018-09-01T11:26:12.510Z,10.00
2018-09-01T11:28:42.992Z,8.15
2018-09-01T11:31:14.080Z,15.75
2018-09-01T11:33:45.146Z,11.75
2018-09-01T11:36:15.221Z,14.43
2018-09-01T11:38:45.637Z,14.07
2018-09-01T11:41:19.477Z,14.40
2018-09-01T11:43:49.350Z,12.85
2018-09-01T11:46:19.112Z,12.93
2018-09-01T11:48:49.333Z,11.35
2018-09-01T11:51:20.357Z,11.97
2018-09-01T11:53:50.992Z,13.28
2018-09-01T11:56:21.508Z,8.73
2018-09-01T11:58:57.427Z,7.87
2018-09-01T12:01:28.093Z,10.58
2018-09-01T12:03:58.137Z,11.15
2018-09-01T12:06:28.276Z,9.60
2018-09-01T12:08:58.284Z,8.85
2018-09-01T12:11:27.496Z,9.03
2018-09-01T12:13:57.447Z,10.50
2018-09-01T12:16:27.776Z,9.68
2018-09-01T12:18:57.190Z,7.25
2018-09-01T12:21:27.279Z,7.62
2018-09-01T12:23:56.356Z,7.55
2018-09-01T12:26:26.326Z,7.30
2018-09-01T12:28:56.326Z,8.20
2018-09-01T12:31:26.529Z,7.72
2018-09-01T12:33:56.278Z,6.47
2018-09-01T12:36:27.440Z,7.35
2018-09-01T12:38:56.811Z,7.55
2018-09-01T12:41:27.653Z,7.33
2018-09-01T12:43:57.759Z,7.83
2018-09-01T12:46:28.105Z,6.45
2018-09-01T12:48:57.599Z,6.83
2018-09-01T12:51:28.059Z,6.87
2018-09-01T12:53:58.358Z,6.05
2018-09-01T12:56:30.242Z,5.67
2018-09-01T12:59:00.455Z,6.10
2018-09-01T13:01:30.786Z,6.28
2018-09-01T13:04:00.441Z,5.40
2018-09-01T13:06:31.395Z,5.42
2018-09-01T13:09:01.634Z,6.17
2018-09-01T13:11:32.023Z,4.67
2018-09-01T13:14:02.808Z,5.35
2018-09-01T13:16:33.124Z,4.72
2018-09-01T13:19:02.712Z,4.35
2018-09-01T13:21:32.851Z,4.92
2018-09-01T13:24:03.641Z,5.10
2018-09-01T13:26:33.845Z,4.97
2018-09-01T13:29:04.533Z,3.87
2018-09-01T13:31:35.087Z,4.30
2018-09-01T13:34:05.425Z,4.45
2018-09-01T13:36:35.836Z,4.92
2018-09-01T13:39:06.958Z,4.80
2018-09-01T13:41:36.711Z,3.98
2018-09-01T13:44:06.507Z,4.30
2018-09-01T13:46:36.998Z,4.53
2018-09-01T13:49:07.552Z,4.62
2018-09-01T13:51:37.139Z,5.25
2018-09-01T13:54:06.982Z,4.85
2018-09-01T13:56:36.653Z,4.65
2018-09-01T13:59:06.565Z,5.17
2018-09-01T14:01:48.105Z,4.72
2018-09-01T14:04:17.755Z,4.87
2018-09-01T14:06:47.823Z,4.28
2018-09-01T14:09:18.079Z,4.60
2018-09-01T14:11:52.637Z,4.67
2018-09-01T14:14:22.476Z,4.22
2018-09-01T14:16:52.724Z,4.60
2018-09-01T14:19:22.994Z,5.45
2018-09-01T14:21:52.697Z,4.83
2018-09-01T14:24:22.072Z,5.08
2018-09-01T14:26:52.447Z,5.72
2018-09-01T14:29:22.619Z,4.83
2018-09-01T14:31:52.304Z,5.37
2018-09-01T14:34:22.641Z,4.42
2018-09-01T14:36:52.672Z,4.85
2018-09-01T14:39:22.507Z,4.85
2018-09-01T14:41:53.211Z,4.75
2018-09-01T14:44:23.337Z,4.87
2018-09-01T14:46:52.860Z,5.15
2018-09-01T14:49:23.238Z,4.28
2018-09-01T14:51:53.905Z,4.62
2018-09-01T14:54:24.569Z,4.37
2018-09-01T14:56:54.337Z,4.55
2018-09-01T14:59:24.614Z,3.95
2018-09-01T15:01:54.432Z,4.20
2018-09-01T15:04:24.540Z,5.17
2018-09-01T15:06:55.512Z,4.80
2018-09-01T15:09:28.093Z,4.67
2018-09-01T15:11:58.260Z,4.90
2018-09-01T15:14:28.940Z,4.65
2018-09-01T15:16:58.549Z,4.83
2018-09-01T15:19:28.404Z,7.17
2018-09-01T15:21:59.045Z,5.62
2018-09-01T15:24:29.532Z,5.30
2018-09-01T15:26:59.001Z,5.15
2018-09-01T15:29:28.268Z,5.40
2018-09-01T15:31:58.526Z,5.78
2018-09-01T15:34:28.224Z,4.60
2018-09-01T15:36:57.998Z,5.40
2018-09-01T15:39:27.695Z,5.78
2018-09-01T15:41:57.252Z,4.97
2018-09-01T15:44:26.883Z,5.47
2018-09-01T15:46:58.442Z,5.50
2018-09-01T15:49:29.669Z,5.33
2018-09-01T15:52:00.833Z,5.55
2018-09-01T15:54:30.687Z,5.20
2018-09-01T15:57:00.951Z,5.87
2018-09-01T15:59:30.884Z,5.35
2018-09-01T16:02:00.373Z,6.33
2018-09-01T16:04:30.201Z,5.58
2018-09-01T16:06:59.864Z,5.47
2018-09-01T16:09:29.630Z,5.58
2018-09-01T16:11:58.761Z,5.27
2018-09-01T16:14:28.673Z,5.67
2018-09-01T16:16:58.493Z,5.25
2018-09-01T16:19:28.062Z,5.17
2018-09-01T16:21:57.916Z,5.60
2018-09-01T16:24:29.209Z,6.20
2018-09-01T16:26:59.589Z,5.97
2018-09-01T16:29:34.189Z,5.00
2018-09-01T16:32:05.334Z,5.40
2018-09-01T16:34:35.461Z,5.00
2018-09-01T16:37:05.034Z,5.05
2018-09-01T16:39:34.684Z,5.42
2018-09-01T16:42:03.908Z,4.85
2018-09-01T16:44:34.030Z,5.95
2018-09-01T16:47:03.628Z,5.25
2018-09-01T16:49:33.358Z,5.25
2018-09-01T16:52:03.371Z,5.37
2018-09-01T16:54:33.068Z,5.28
2018-09-01T16:57:04.417Z,5.10
2018-09-01T16:59:33.983Z,5.53
2018-09-01T17:02:03.618Z,5.37
2018-09-01T17:04:33.227Z,5.62
2018-09-01T17:07:03.149Z,5.58
2018-09-01T17:09:32.882Z,5.10
2018-09-01T17:12:03.888Z,5.30
2018-09-01T17:14:33.259Z,5.37
2018-09-01T17:17:05.496Z,5.05
2018-09-01T17:19:36.224Z,5.23
2018-09-01T17:22:08.654Z,5.00
2018-09-01T17:24:38.981Z,5.00
2018-09-01T17:27:10.428Z,5.30
2018-09-01T17:29:41.050Z,5.30
2018-09-01T17:32:18.933Z,4.85
2018-09-01T17:34:50.201Z,5.00
2018-09-01T17:37:23.598Z,4.77
2018-09-01T17:39:53.659Z,5.37
2018-09-01T17:42:23.270Z,5.33
2018-09-01T17:44:54.527Z,5.67
2018-09-01T17:47:26.542Z,7.17
2018-09-01T17:50:03.140Z,6.05
2018-09-01T17:52:33.140Z,5.50
2018-09-01T17:55:03.178Z,5.93
2018-09-01T17:57:33.089Z,5.70
2018-09-01T18:00:03.206Z,5.50
2018-09-01T18:02:33.175Z,5.47
2018-09-01T18:05:02.993Z,5.80
2018-09-01T18:07:32.833Z,5.30
2018-09-01T18:10:02.901Z,5.63
2018-09-01T18:12:32.699Z,5.00
2018-09-01T18:15:02.628Z,5.03
2018-09-01T18:17:31.821Z,4.60
2018-09-01T18:20:01.916Z,4.47
2018-09-01T18:22:31.906Z,5.13
2018-09-01T18:25:01.727Z,5.07
2018-09-01T18:27:31.547Z,5.60
2018-09-01T18:30:01.355Z,5.20
2018-09-01T18:32:31.757Z,5.13
2018-09-01T18:35:01.221Z,5.50
2018-09-01T18:37:31.962Z,5.13
2018-09-01T18:40:01.465Z,5.33
2018-09-01T18:42:32.402Z,5.93
2018-09-01T18:45:02.128Z,5.10
2018-09-01T18:47:32.593Z,5.47
2018-09-01T18:50:02.310Z,5.37
2018-09-01T18:52:32.984Z,5.77
2018-09-01T18:55:02.725Z,4.93
2018-09-01T18:57:32.741Z,5.20
2018-09-01T19:00:02.453Z,4.97
2018-09-01T19:02:33.336Z,5.87
2018-09-01T19:05:03.317Z,5.13
2018-09-01T19:07:33.572Z,4.80
2018-09-01T19:10:03.240Z,4.97
2018-09-01T19:12:33.041Z,5.87
2018-09-01T19:15:03.750Z,6.33
2018-09-01T19:17:33.620Z,5.60
2018-09-01T19:20:03.898Z,5.77
2018-09-01T19:22:34.830Z,6.07
2018-09-01T19:25:05.612Z,7.40
2018-09-01T19:27:35.852Z,7.03
2018-09-01T19:30:05.161Z,6.43
2018-09-01T19:32:36.359Z,6.63
2018-09-01T19:35:05.733Z,6.43
2018-09-01T19:37:39.079Z,7.07
2018-09-01T19:40:09.856Z,7.17
2018-09-01T19:42:39.902Z,7.37
2018-09-01T19:45:10.719Z,7.00
2018-09-01T19:47:40.635Z,7.53
2018-09-01T19:50:10.389Z,6.77
2018-09-01T19:52:40.105Z,7.00
2018-09-01T19:55:12.584Z,7.13
2018-09-01T19:57:43.003Z,6.87
2018-09-01T20:00:13.169Z,6.87
2018-09-01T20:02:42.585Z,7.23
2018-09-01T20:05:19.038Z,7.27
2018-09-01T20:07:49.113Z,7.53
2018-09-01T20:10:20.641Z,6.70
2018-09-01T20:12:50.394Z,7.13
2018-09-01T20:15:20.221Z,7.73
2018-09-01T20:17:50.794Z,8.03
2018-09-01T20:20:20.497Z,7.73
2018-09-01T20:22:50.502Z,7.90
2018-09-01T20:25:20.776Z,7.37
2018-09-01T20:27:50.178Z,7.47
2018-09-01T20:30:19.745Z,7.43
2018-09-01T20:32:50.879Z,7.77
2018-09-01T20:35:26.375Z,7.37
2018-09-01T20:37:55.883Z,7.30
2018-09-01T20:40:25.294Z,7.50
2018-09-01T20:42:55.903Z,6.93
2018-09-01T20:45:25.601Z,7.50
2018-09-01T20:47:57.538Z,7.67
2018-09-01T20:50:27.906Z,7.67
2018-09-01T20:52:57.346Z,8.10
2018-09-01T20:55:29.098Z,7.87
2018-09-01T20:57:58.622Z,7.70
2018-09-01T21:00:28.040Z,8.87
2018-09-01T21:02:57.135Z,8.27
2018-09-01T21:05:26.144Z,7.87
2018-09-01T21:07:55.643Z,8.27
2018-09-01T21:10:25.137Z,7.80
2018-09-01T21:12:54.789Z,8.03
2018-09-01T21:15:27.831Z,8.03
2018-09-01T21:17:57.188Z,7.80
2018-09-01T21:20:26.538Z,9.07
2018-09-01T21:22:56.467Z,8.87
2018-09-01T21:25:26.419Z,8.70
2018-09-01T21:27:56.305Z,7.97
2018-09-01T21:30:25.873Z,8.13
2018-09-01T21:32:55.424Z,8.07
2018-09-01T21:35:25.284Z,7.90
2018-09-01T21:37:54.701Z,7.30
2018-09-01T21:40:24.417Z,7.70
2018-09-01T21:42:53.703Z,7.83
2018-09-01T21:45:23.205Z,7.87
2018-09-01T21:47:53.130Z,7.40
2018-09-01T21:50:22.877Z,7.60
2018-09-01T21:52:52.247Z,7.90
2018-09-01T21:55:22.744Z,8.03
2018-09-01T21:57:52.092Z,8.87
2018-09-01T22:00:21.528Z,8.70
2018-09-01T22:02:53.740Z,8.37
2018-09-01T22:05:23.693Z,8.37
2018-09-01T22:07:52.988Z,9.20
2018-09-01T22:10:22.505Z,8.37
2018-09-01T22:12:52.083Z,8.53
2018-09-01T22:15:21.632Z,8.20
2018-09-01T22:17:50.920Z,9.03
2018-09-01T22:20:26.212Z,9.13
2018-09-01T22:22:55.168Z,8.17
2018-09-01T22:25:24.738Z,8.77
2018-09-01T22:27:53.697Z,8.67
2018-09-01T22:30:23.113Z,9.40
2018-09-01T22:32:52.313Z,9.10
2018-09-01T22:35:23.088Z,9.10
2018-09-01T22:37:52.737Z,9.07
2018-09-01T22:40:22.416Z,9.13
2018-09-01T22:42:51.956Z,9.00
2018-09-01T22:45:21.797Z,9.00
2018-09-01T22:47:51.681Z,8.60
2018-09-01T22:50:21.231Z,7.87
2018-09-01T22:52:50.497Z,8.53
2018-09-01T22:55:20.094Z,8.70
2018-09-01T22:57:49.683Z,8.67
2018-09-01T23:00:19.110Z,8.87
2018-09-01T23:02:48.630Z,8.57
2018-09-01T23:05:20.209Z,8.30
2018-09-01T23:07:49.875Z,8.47
2018-09-01T23:10:20.178Z,8.20
2018-09-01T23:12:50.688Z,8.30
2018-09-01T23:15:19.960Z,8.43
2018-09-01T23:17:49.393Z,9.37
2018-09-01T23:20:18.821Z,8.70
2018-09-01T23:22:48.586Z,9.03
2018-09-01T23:25:17.869Z,9.07
2018-09-01T23:27:47.656Z,9.10
2018-09-01T23:30:17.006Z,9.27
2018-09-01T23:32:45.888Z,8.80
2018-09-01T23:35:15.115Z,9.30
2018-09-01T23:37:44.345Z,9.07
2018-09-01T23:40:14.014Z,9.80
2018-09-01T23:42:43.173Z,9.30
2018-09-01T23:45:16.916Z,9.30
2018-09-01T23:47:46.345Z,9.53
2018-09-01T23:50:16.038Z,8.63
2018-09-01T23:52:45.454Z,8.57
2018-09-01T23:55:16.003Z,9.13
2018-09-01T23:57:45.123Z,9.77
